createdAt,value
2023-03-18T00:00:19.223Z,89.20
2023-03-18T00:05:18.444Z,89.20
2023-03-18T00:10:18.960Z,88.80
2023-03-18T00:15:18.422Z,88.70
2023-03-18T00:20:18.537Z,88.70
2023-03-18T00:25:18.185Z,88.70
2023-03-18T00:30:16.577Z,88.70
2023-03-18T00:35:15.086Z,89.00
2023-03-18T00:40:17.536Z,89.70
2023-03-18T00:45:18.771Z,89.50
2023-03-18T00:50:17.420Z,89.80
2023-03-18T00:55:15.853Z,90.10
2023-03-18T01:00:17.171Z,90.30
2023-03-18T01:05:17.596Z,91.20
2023-03-18T01:10:16.378Z,91.30
2023-03-18T01:15:17.188Z,91.80
2023-03-18T01:20:19.608Z,91.60
2023-03-18T01:25:22.121Z,91.60
2023-03-18T01:30:24.808Z,91.90
2023-03-18T01:35:27.236Z,92.00
2023-03-18T01:40:26.177Z,92.30
2023-03-18T01:45:29.695Z,92.30
2023-03-18T01:50:34.632Z,92.30
2023-03-18T01:55:37.186Z,92.40
2023-03-18T02:00:37.266Z,92.40
2023-03-18T02:05:38.539Z,92.70
2023-03-18T02:10:38.602Z,92.40
2023-03-18T02:15:43.145Z,92.40
2023-03-18T02:21:07.452Z,92.40
2023-03-18T02:26:14.416Z,92.30
2023-03-18T02:31:16.725Z,92.40
2023-03-18T02:36:19.997Z,92.50
2023-03-18T02:41:20.784Z,92.40
2023-03-18T02:46:30.902Z,92.30
2023-03-18T02:51:30.312Z,92.10
2023-03-18T02:56:28.799Z,92.10
2023-03-18T03:01:28.723Z,92.00
2023-03-18T03:06:27.543Z,92.00
2023-03-18T03:11:26.489Z,91.80
2023-03-18T03:16:30.016Z,91.90
2023-03-18T03:21:29.375Z,91.80
2023-03-18T03:26:27.652Z,91.70
2023-03-18T03:31:26.822Z,91.60
2023-03-18T03:36:26.707Z,91.50
2023-03-18T03:41:27.697Z,91.80
2023-03-18T03:46:26.573Z,91.80
2023-03-18T03:51:26.603Z,91.90
2023-03-18T03:56:24.910Z,92.10
2023-03-18T04:01:23.245Z,92.10
2023-03-18T04:06:21.629Z,92.20
2023-03-18T04:11:30.990Z,92.50
2023-03-18T04:16:29.305Z,92.70
2023-03-18T04:21:27.942Z,92.70
2023-03-18T04:26:28.568Z,92.60
2023-03-18T04:31:32.091Z,92.30
2023-03-18T04:36:31.074Z,92.30
2023-03-18T04:41:29.404Z,92.60
2023-03-18T04:46:32.794Z,92.50
2023-03-18T04:51:31.353Z,92.40
2023-03-18T04:56:29.657Z,92.60
2023-03-18T05:01:29.826Z,92.60
2023-03-18T05:06:31.769Z,92.70
2023-03-18T05:11:36.170Z,92.80
2023-03-18T05:16:52.796Z,92.70
2023-03-18T05:21:53.084Z,92.70
2023-03-18T05:26:51.646Z,92.80
2023-03-18T05:31:54.600Z,92.90
2023-03-18T05:36:54.984Z,93.50
2023-03-18T05:41:53.765Z,93.50
2023-03-18T05:46:57.162Z,93.80
2023-03-18T05:52:25.827Z,94.00
2023-03-18T05:57:28.469Z,94.00
2023-03-18T06:02:33.499Z,94.20
2023-03-18T06:07:33.145Z,94.30
2023-03-18T06:12:31.542Z,94.00
2023-03-18T06:17:29.950Z,94.00
2023-03-18T06:22:28.545Z,94.10
2023-03-18T06:27:28.522Z,94.20
2023-03-18T06:32:30.208Z,94.60
2023-03-18T06:37:29.356Z,94.30
2023-03-18T06:42:29.140Z,94.70
2023-03-18T06:47:36.906Z,94.80
2023-03-18T06:52:36.037Z,94.90
2023-03-18T06:57:43.280Z,94.90
2023-03-18T07:02:43.460Z,95.10
2023-03-18T07:07:46.282Z,95.30
2023-03-18T07:12:47.556Z,95.60
2023-03-18T07:17:46.013Z,95.60
2023-03-18T07:22:45.236Z,95.80
2023-03-18T07:27:45.696Z,96.10
2023-03-18T07:32:46.028Z,95.90
2023-03-18T07:37:45.078Z,95.60
2023-03-18T07:42:43.564Z,95.20
2023-03-18T07:47:44.269Z,95.60
2023-03-18T07:52:44.764Z,95.40
2023-03-18T07:57:43.400Z,95.50
2023-03-18T08:02:43.145Z,95.40
2023-03-18T08:07:41.365Z,95.20
2023-03-18T08:12:51.999Z,94.70
2023-03-18T08:17:53.924Z,95.30
2023-03-18T08:22:52.286Z,95.20
2023-03-18T08:27:50.975Z,94.60
2023-03-18T08:32:49.203Z,95.00
2023-03-18T08:37:49.034Z,93.80
2023-03-18T08:42:47.514Z,92.50
2023-03-18T08:47:45.717Z,92.80
2023-03-18T08:52:43.938Z,93.60
2023-03-18T08:57:43.618Z,93.90
2023-03-18T09:02:41.919Z,93.60
2023-03-18T09:07:40.482Z,93.20
2023-03-18T09:12:38.717Z,92.80
2023-03-18T09:17:56.517Z,92.90
2023-03-18T09:22:59.477Z,91.90
2023-03-18T09:27:57.709Z,90.40
2023-03-18T09:32:57.726Z,88.00
2023-03-18T09:37:56.341Z,84.50
2023-03-18T09:43:02.661Z,83.90
2023-03-18T09:48:23.518Z,81.10
2023-03-18T09:53:25.277Z,80.20
2023-03-18T09:58:28.763Z,76.10
2023-03-18T10:03:35.809Z,70.10
2023-03-18T10:08:48.209Z,68.40
2023-03-18T10:13:55.010Z,67.20
2023-03-18T10:18:55.078Z,63.50
2023-03-18T10:23:59.803Z,61.10
2023-03-18T10:29:14.210Z,59.30
2023-03-18T10:34:17.777Z,59.10
2023-03-18T10:39:18.063Z,59.70
2023-03-18T10:44:21.307Z,59.00
2023-03-18T10:49:26.208Z,58.20
2023-03-18T10:54:28.487Z,59.50
2023-03-18T10:59:27.969Z,57.50
2023-03-18T11:04:30.678Z,57.90
2023-03-18T11:09:33.173Z,58.60
2023-03-18T11:14:33.104Z,59.30
2023-03-18T11:19:39.516Z,59.20
2023-03-18T11:24:42.592Z,60.60
2023-03-18T11:29:45.598Z,64.00
2023-03-18T11:34:55.822Z,67.40
2023-03-18T11:39:58.983Z,71.10
2023-03-18T11:45:05.293Z,74.00
2023-03-18T11:50:06.465Z,75.90
2023-03-18T11:55:15.852Z,77.70
2023-03-18T12:00:28.270Z,79.20
2023-03-18T12:05:41.881Z,78.10
2023-03-18T12:10:48.350Z,79.20
2023-03-18T12:15:53.621Z,77.80
2023-03-18T12:20:55.024Z,80.00
2023-03-18T12:26:03.346Z,80.50
2023-03-18T12:31:15.729Z,79.40
2023-03-18T12:36:23.822Z,80.00
2023-03-18T12:41:36.032Z,80.90
2023-03-18T12:46:40.566Z,80.40
2023-03-18T12:51:45.986Z,81.30
2023-03-18T12:56:51.134Z,80.90
2023-03-18T13:01:59.687Z,81.80
2023-03-18T13:07:07.044Z,83.40
2023-03-18T13:12:11.717Z,84.10
2023-03-18T13:17:13.964Z,86.00
2023-03-18T13:22:29.883Z,84.50
2023-03-18T13:27:43.027Z,86.40
2023-03-18T13:33:09.567Z,86.80
2023-03-18T13:38:33.648Z,86.50
2023-03-18T13:43:34.776Z,86.50
2023-03-18T13:48:35.296Z,86.70
2023-03-18T13:53:39.503Z,87.70
2023-03-18T13:58:47.728Z,87.60
2023-03-18T14:04:03.230Z,89.90
2023-03-18T14:09:23.644Z,90.10
2023-03-18T14:14:56.736Z,90.50
2023-03-18T14:19:56.993Z,90.60
2023-03-18T14:25:35.366Z,91.60
2023-03-18T14:30:48.309Z,91.80
2023-03-18T14:35:50.487Z,92.00
2023-03-18T14:40:53.836Z,92.70
2023-03-18T14:45:53.601Z,93.60
2023-03-18T14:50:53.469Z,93.60
2023-03-18T14:55:56.558Z,93.00
2023-03-18T15:00:58.841Z,93.80
2023-03-18T15:11:23.822Z,94.50
2023-03-18T15:16:25.415Z,94.50
2023-03-18T15:21:27.602Z,94.60
2023-03-18T15:26:31.910Z,94.40
2023-03-18T15:31:32.451Z,94.80
2023-03-18T15:36:30.720Z,94.10
2023-03-18T15:41:32.208Z,94.60
2023-03-18T15:46:31.847Z,94.90
2023-03-18T15:51:32.123Z,95.30
2023-03-18T15:56:34.084Z,95.70
2023-03-18T16:01:40.000Z,95.70
2023-03-18T16:06:38.736Z,96.00
2023-03-18T16:11:38.416Z,95.90
2023-03-18T16:16:36.899Z,95.20
2023-03-18T16:21:35.672Z,94.50
2023-03-18T16:26:34.009Z,94.60
2023-03-18T16:31:33.625Z,94.60
2023-03-18T16:36:35.215Z,93.60
2023-03-18T16:41:33.455Z,92.20
2023-03-18T16:46:33.172Z,92.50
2023-03-18T16:51:32.211Z,93.50
2023-03-18T16:56:30.445Z,93.90
2023-03-18T17:01:28.713Z,94.60
2023-03-18T17:06:28.332Z,95.10
2023-03-18T17:11:27.469Z,95.50
2023-03-18T17:16:27.895Z,96.30
2023-03-18T17:21:29.283Z,96.10
2023-03-18T17:26:29.835Z,97.10
2023-03-18T17:31:28.133Z,97.00
2023-03-18T17:36:27.946Z,97.70
2023-03-18T17:41:26.222Z,97.80
2023-03-18T17:46:24.541Z,97.90
2023-03-18T17:51:24.907Z,98.10
2023-03-18T17:56:24.674Z,98.40
2023-03-18T18:01:26.587Z,98.30
2023-03-18T18:06:27.278Z,98.50
2023-03-18T18:11:28.987Z,99.30
2023-03-18T18:16:27.309Z,99.80
2023-03-18T18:21:27.213Z,99.50
2023-03-18T18:26:26.835Z,99.90
2023-03-18T18:31:25.628Z,99.90
2023-03-18T18:36:28.148Z,99.90
2023-03-18T18:41:28.386Z,99.90
2023-03-18T18:46:28.088Z,99.90
2023-03-18T18:51:26.795Z,99.90
2023-03-18T18:56:34.299Z,99.90
2023-03-18T19:01:32.874Z,99.90
2023-03-18T19:06:32.818Z,99.90
2023-03-18T19:11:33.553Z,99.90
2023-03-18T19:16:34.545Z,99.90
2023-03-18T19:21:32.866Z,99.90
2023-03-18T19:26:32.497Z,99.90
2023-03-18T19:31:35.416Z,99.90
2023-03-18T19:36:39.642Z,99.90
2023-03-18T19:41:39.230Z,99.90
2023-03-18T19:46:39.674Z,99.90
2023-03-18T19:51:37.898Z,99.90
2023-03-18T19:56:36.147Z,99.90
2023-03-18T20:01:36.024Z,99.90
2023-03-18T20:06:34.287Z,99.90
2023-03-18T20:11:32.524Z,99.90
2023-03-18T20:16:30.789Z,99.90
2023-03-18T20:21:32.445Z,99.90
2023-03-18T20:26:30.719Z,99.90
2023-03-18T20:31:30.248Z,99.90
2023-03-18T20:36:28.510Z,99.90
2023-03-18T20:41:28.115Z,99.90
2023-03-18T20:46:26.441Z,99.90
2023-03-18T20:51:30.308Z,99.90
2023-03-18T20:56:32.983Z,99.90
2023-03-18T21:01:31.781Z,99.90
2023-03-18T21:06:30.208Z,99.90
2023-03-18T21:11:32.824Z,99.90
2023-03-18T21:16:32.245Z,99.90
2023-03-18T21:21:35.413Z,99.90
2023-03-18T21:26:35.083Z,99.90
2023-03-18T21:31:33.588Z,99.90
2023-03-18T21:36:32.341Z,99.90
2023-03-18T21:41:32.002Z,99.90
2023-03-18T21:46:32.187Z,99.90
2023-03-18T21:51:39.170Z,99.90
2023-03-18T21:56:38.455Z,99.90
2023-03-18T22:01:38.206Z,99.90
2023-03-18T22:06:36.318Z,99.90
2023-03-18T22:11:34.750Z,99.90
2023-03-18T22:16:33.197Z,99.90
2023-03-18T22:21:32.800Z,99.90
2023-03-18T22:26:31.027Z,99.90
2023-03-18T22:31:29.294Z,99.90
2023-03-18T22:36:29.166Z,99.90
2023-03-18T22:41:30.491Z,99.90
2023-03-18T22:46:30.105Z,99.90
2023-03-18T22:51:30.752Z,99.90
2023-03-18T22:56:32.288Z,99.90
2023-03-18T23:01:32.332Z,99.90
2023-03-18T23:06:30.673Z,99.90
2023-03-18T23:11:31.346Z,99.90
2023-03-18T23:16:29.606Z,99.90
2023-03-18T23:21:27.908Z,99.90
2023-03-18T23:26:26.305Z,99.90
2023-03-18T23:31:26.099Z,99.90
2023-03-18T23:36:24.350Z,99.90
2023-03-18T23:41:22.546Z,99.90
2023-03-18T23:46:20.811Z,99.90
2023-03-18T23:51:20.415Z,99.90
2023-03-18T23:56:18.717Z,99.90
